sensor_id;sensor_type;location;lat;lon;timestamp;P1;P2;P0
64229;PMS5003;50547;49.498;0.092;2023-05-07T00:00:17;8;8;
64229;PMS5003;50547;49.498;0.092;2023-05-07T00:02:46;7;7;
64229;PMS5003;50547;49.498;0.092;2023-05-07T00:05:16;9;9;
64229;PMS5003;50547;49.498;0.092;2023-05-07T00:07:46;10;10;
64229;PMS5003;50547;49.498;0.092;2023-05-07T00:10:12;11;11;
64229;PMS5003;50547;49.498;0.092;2023-05-07T00:12:41;10;10;
64229;PMS5003;50547;49.498;0.092;2023-05-07T00:15:10;7;7;
64229;PMS5003;50547;49.498;0.092;2023-05-07T00:17:40;11;11;
64229;PMS5003;50547;49.498;0.092;2023-05-07T00:20:09;10;10;
64229;PMS5003;50547;49.498;0.092;2023-05-07T00:22:39;10;10;
64229;PMS5003;50547;49.498;0.092;2023-05-07T00:25:08;6;6;
64229;PMS5003;50547;49.498;0.092;2023-05-07T00:27:37;7;7;
64229;PMS5003;50547;49.498;0.092;2023-05-07T00:30:07;6;6;
64229;PMS5003;50547;49.498;0.092;2023-05-07T00:32:36;7;7;
64229;PMS5003;50547;49.498;0.092;2023-05-07T00:35:06;8;8;
64229;PMS5003;50547;49.498;0.092;2023-05-07T00:37:36;6;6;
64229;PMS5003;50547;49.498;0.092;2023-05-07T00:40:06;8;8;
64229;PMS5003;50547;49.498;0.092;2023-05-07T00:42:36;10;10;
64229;PMS5003;50547;49.498;0.092;2023-05-07T00:45:05;10;10;
64229;PMS5003;50547;49.498;0.092;2023-05-07T00:47:35;10;10;
64229;PMS5003;50547;49.498;0.092;2023-05-07T00:50:05;8;8;
64229;PMS5003;50547;49.498;0.092;2023-05-07T00:52:36;10;10;
64229;PMS5003;50547;49.498;0.092;2023-05-07T00:55:06;10;10;
64229;PMS5003;50547;49.498;0.092;2023-05-07T00:57:36;8;8;
64229;PMS5003;50547;49.498;0.092;2023-05-07T01:00:07;10;10;
64229;PMS5003;50547;49.498;0.092;2023-05-07T01:02:35;10;10;
64229;PMS5003;50547;49.498;0.092;2023-05-07T01:05:05;10;10;
64229;PMS5003;50547;49.498;0.092;2023-05-07T01:07:37;10;10;
64229;PMS5003;50547;49.498;0.092;2023-05-07T01:10:08;10;10;
64229;PMS5003;50547;49.498;0.092;2023-05-07T01:12:39;10;10;
64229;PMS5003;50547;49.498;0.092;2023-05-07T01:15:09;8;8;
64229;PMS5003;50547;49.498;0.092;2023-05-07T01:17:39;7;7;
64229;PMS5003;50547;49.498;0.092;2023-05-07T01:20:10;7;7;
64229;PMS5003;50547;49.498;0.092;2023-05-07T01:22:40;6;6;
64229;PMS5003;50547;49.498;0.092;2023-05-07T01:25:09;10;10;
64229;PMS5003;50547;49.498;0.092;2023-05-07T01:27:38;7;7;
64229;PMS5003;50547;49.498;0.092;2023-05-07T01:30:07;6;6;
64229;PMS5003;50547;49.498;0.092;2023-05-07T01:32:38;5;5;
64229;PMS5003;50547;49.498;0.092;2023-05-07T01:35:11;6;6;
64229;PMS5003;50547;49.498;0.092;2023-05-07T01:37:42;8;8;
64229;PMS5003;50547;49.498;0.092;2023-05-07T01:40:11;8;8;
64229;PMS5003;50547;49.498;0.092;2023-05-07T01:42:41;8;8;
64229;PMS5003;50547;49.498;0.092;2023-05-07T01:45:12;8;8;
64229;PMS5003;50547;49.498;0.092;2023-05-07T01:47:41;8;8;
64229;PMS5003;50547;49.498;0.092;2023-05-07T01:50:11;7;7;
64229;PMS5003;50547;49.498;0.092;2023-05-07T01:52:41;6;6;
64229;PMS5003;50547;49.498;0.092;2023-05-07T01:55:10;7;7;
64229;PMS5003;50547;49.498;0.092;2023-05-07T01:57:39;8;8;
64229;PMS5003;50547;49.498;0.092;2023-05-07T02:00:08;5;5;
64229;PMS5003;50547;49.498;0.092;2023-05-07T02:02:38;5;5;
64229;PMS5003;50547;49.498;0.092;2023-05-07T02:05:07;7;7;
64229;PMS5003;50547;49.498;0.092;2023-05-07T02:07:37;5;5;
64229;PMS5003;50547;49.498;0.092;2023-05-07T02:10:06;5;5;
64229;PMS5003;50547;49.498;0.092;2023-05-07T02:12:36;4;4;
64229;PMS5003;50547;49.498;0.092;2023-05-07T02:15:05;4;4;
64229;PMS5003;50547;49.498;0.092;2023-05-07T02:17:35;8;8;
64229;PMS5003;50547;49.498;0.092;2023-05-07T02:20:26;6;6;
64229;PMS5003;50547;49.498;0.092;2023-05-07T02:22:55;5;5;
64229;PMS5003;50547;49.498;0.092;2023-05-07T02:25:24;5;5;
64229;PMS5003;50547;49.498;0.092;2023-05-07T02:27:53;4;4;
64229;PMS5003;50547;49.498;0.092;2023-05-07T02:30:23;4;4;
64229;PMS5003;50547;49.498;0.092;2023-05-07T02:32:52;4;4;
64229;PMS5003;50547;49.498;0.092;2023-05-07T02:35:21;5;5;
64229;PMS5003;50547;49.498;0.092;2023-05-07T02:37:50;5;5;
64229;PMS5003;50547;49.498;0.092;2023-05-07T02:40:19;5;5;
64229;PMS5003;50547;49.498;0.092;2023-05-07T02:42:49;4;4;
64229;PMS5003;50547;49.498;0.092;2023-05-07T02:45:18;4;4;
64229;PMS5003;50547;49.498;0.092;2023-05-07T02:47:47;4;4;
64229;PMS5003;50547;49.498;0.092;2023-05-07T02:50:16;4;4;
64229;PMS5003;50547;49.498;0.092;2023-05-07T02:52:45;5;5;
64229;PMS5003;50547;49.498;0.092;2023-05-07T02:55:15;4;4;
64229;PMS5003;50547;49.498;0.092;2023-05-07T02:57:44;4;4;
64229;PMS5003;50547;49.498;0.092;2023-05-07T03:00:13;4;4;
64229;PMS5003;50547;49.498;0.092;2023-05-07T03:02:44;7;7;
64229;PMS5003;50547;49.498;0.092;2023-05-07T03:05:14;5;5;
64229;PMS5003;50547;49.498;0.092;2023-05-07T03:07:40;4;4;
64229;PMS5003;50547;49.498;0.092;2023-05-07T03:10:09;5;5;
64229;PMS5003;50547;49.498;0.092;2023-05-07T03:12:38;4;4;
64229;PMS5003;50547;49.498;0.092;2023-05-07T03:15:08;5;5;
64229;PMS5003;50547;49.498;0.092;2023-05-07T03:17:38;4;4;
64229;PMS5003;50547;49.498;0.092;2023-05-07T03:20:08;4;4;
64229;PMS5003;50547;49.498;0.092;2023-05-07T03:22:37;4;4;
64229;PMS5003;50547;49.498;0.092;2023-05-07T03:25:08;4;4;
64229;PMS5003;50547;49.498;0.092;2023-05-07T03:27:38;5;5;
64229;PMS5003;50547;49.498;0.092;2023-05-07T03:30:07;4;4;
64229;PMS5003;50547;49.498;0.092;2023-05-07T03:32:37;5;5;
64229;PMS5003;50547;49.498;0.092;2023-05-07T03:35:06;5;5;
64229;PMS5003;50547;49.498;0.092;2023-05-07T03:37:36;4;4;
64229;PMS5003;50547;49.498;0.092;2023-05-07T03:40:06;4;4;
64229;PMS5003;50547;49.498;0.092;2023-05-07T03:42:36;4;4;
64229;PMS5003;50547;49.498;0.092;2023-05-07T03:45:06;4;4;
64229;PMS5003;50547;49.498;0.092;2023-05-07T03:47:36;4;4;
64229;PMS5003;50547;49.498;0.092;2023-05-07T03:50:05;5;5;
64229;PMS5003;50547;49.498;0.092;2023-05-07T03:52:34;5;5;
64229;PMS5003;50547;49.498;0.092;2023-05-07T03:55:04;6;6;
64229;PMS5003;50547;49.498;0.092;2023-05-07T03:57:33;6;6;
64229;PMS5003;50547;49.498;0.092;2023-05-07T04:00:03;6;6;
64229;PMS5003;50547;49.498;0.092;2023-05-07T04:02:32;8;8;
64229;PMS5003;50547;49.498;0.092;2023-05-07T04:05:02;8;8;
64229;PMS5003;50547;49.498;0.092;2023-05-07T04:07:31;10;10;
64229;PMS5003;50547;49.498;0.092;2023-05-07T04:10:00;10;10;
64229;PMS5003;50547;49.498;0.092;2023-05-07T04:12:29;12;12;
64229;PMS5003;50547;49.498;0.092;2023-05-07T04:14:58;13;13;
64229;PMS5003;50547;49.498;0.092;2023-05-07T04:17:28;14;14;
64229;PMS5003;50547;49.498;0.092;2023-05-07T04:19:57;18;16;
64229;PMS5003;50547;49.498;0.092;2023-05-07T04:22:26;17;15;
64229;PMS5003;50547;49.498;0.092;2023-05-07T04:24:55;14;14;
64229;PMS5003;50547;49.498;0.092;2023-05-07T04:27:24;13;13;
64229;PMS5003;50547;49.498;0.092;2023-05-07T04:29:53;14;14;
64229;PMS5003;50547;49.498;0.092;2023-05-07T04:32:22;14;14;
64229;PMS5003;50547;49.498;0.092;2023-05-07T04:34:52;13;13;
64229;PMS5003;50547;49.498;0.092;2023-05-07T04:37:21;14;14;
64229;PMS5003;50547;49.498;0.092;2023-05-07T04:39:50;14;14;
64229;PMS5003;50547;49.498;0.092;2023-05-07T04:42:19;14;14;
64229;PMS5003;50547;49.498;0.092;2023-05-07T04:44:51;13;13;
64229;PMS5003;50547;49.498;0.092;2023-05-07T04:47:21;14;14;
64229;PMS5003;50547;49.498;0.092;2023-05-07T04:49:50;13;13;
64229;PMS5003;50547;49.498;0.092;2023-05-07T04:52:19;14;14;
64229;PMS5003;50547;49.498;0.092;2023-05-07T04:54:49;14;14;
64229;PMS5003;50547;49.498;0.092;2023-05-07T04:57:18;13;13;
64229;PMS5003;50547;49.498;0.092;2023-05-07T04:59:47;14;14;
64229;PMS5003;50547;49.498;0.092;2023-05-07T05:02:16;13;13;
64229;PMS5003;50547;49.498;0.092;2023-05-07T05:04:45;14;14;
64229;PMS5003;50547;49.498;0.092;2023-05-07T05:07:14;13;13;
64229;PMS5003;50547;49.498;0.092;2023-05-07T05:09:44;14;14;
64229;PMS5003;50547;49.498;0.092;2023-05-07T05:12:13;14;14;
64229;PMS5003;50547;49.498;0.092;2023-05-07T05:14:42;13;13;
64229;PMS5003;50547;49.498;0.092;2023-05-07T05:17:12;11;11;
64229;PMS5003;50547;49.498;0.092;2023-05-07T05:19:41;12;12;
64229;PMS5003;50547;49.498;0.092;2023-05-07T05:22:10;11;11;
64229;PMS5003;50547;49.498;0.092;2023-05-07T05:24:39;13;13;
64229;PMS5003;50547;49.498;0.092;2023-05-07T05:27:08;13;13;
64229;PMS5003;50547;49.498;0.092;2023-05-07T05:29:37;13;13;
64229;PMS5003;50547;49.498;0.092;2023-05-07T05:32:06;13;13;
64229;PMS5003;50547;49.498;0.092;2023-05-07T05:34:35;13;13;
64229;PMS5003;50547;49.498;0.092;2023-05-07T05:37:04;11;11;
64229;PMS5003;50547;49.498;0.092;2023-05-07T05:39:33;15;14;
64229;PMS5003;50547;49.498;0.092;2023-05-07T05:42:03;14;14;
64229;PMS5003;50547;49.498;0.092;2023-05-07T05:44:32;13;13;
64229;PMS5003;50547;49.498;0.092;2023-05-07T05:47:02;25;22;
64229;PMS5003;50547;49.498;0.092;2023-05-07T05:49:31;32;28;
64229;PMS5003;50547;49.498;0.092;2023-05-07T05:52:01;30;26;
64229;PMS5003;50547;49.498;0.092;2023-05-07T05:54:30;30;26;
64229;PMS5003;50547;49.498;0.092;2023-05-07T05:56:59;27;23;
64229;PMS5003;50547;49.498;0.092;2023-05-07T05:59:28;22;19;
64229;PMS5003;50547;49.498;0.092;2023-05-07T06:01:57;17;15;
64229;PMS5003;50547;49.498;0.092;2023-05-07T06:04:27;18;16;
64229;PMS5003;50547;49.498;0.092;2023-05-07T06:06:56;15;14;
64229;PMS5003;50547;49.498;0.092;2023-05-07T06:09:25;13;13;
64229;PMS5003;50547;49.498;0.092;2023-05-07T06:11:54;13;13;
64229;PMS5003;50547;49.498;0.092;2023-05-07T06:14:23;13;13;
64229;PMS5003;50547;49.498;0.092;2023-05-07T06:16:52;11;11;
64229;PMS5003;50547;49.498;0.092;2023-05-07T06:19:21;10;10;
64229;PMS5003;50547;49.498;0.092;2023-05-07T06:21:50;10;10;
64229;PMS5003;50547;49.498;0.092;2023-05-07T06:24:20;10;10;
64229;PMS5003;50547;49.498;0.092;2023-05-07T06:26:49;9;9;
64229;PMS5003;50547;49.498;0.092;2023-05-07T06:29:18;7;7;
64229;PMS5003;50547;49.498;0.092;2023-05-07T06:31:47;8;8;
64229;PMS5003;50547;49.498;0.092;2023-05-07T06:34:16;8;8;
64229;PMS5003;50547;49.498;0.092;2023-05-07T06:36:45;10;10;
64229;PMS5003;50547;49.498;0.092;2023-05-07T06:39:15;10;10;
64229;PMS5003;50547;49.498;0.092;2023-05-07T06:41:44;11;11;
64229;PMS5003;50547;49.498;0.092;2023-05-07T06:44:13;11;11;
64229;PMS5003;50547;49.498;0.092;2023-05-07T06:46:42;13;13;
64229;PMS5003;50547;49.498;0.092;2023-05-07T06:49:11;13;13;
64229;PMS5003;50547;49.498;0.092;2023-05-07T06:51:41;14;14;
64229;PMS5003;50547;49.498;0.092;2023-05-07T06:54:10;17;15;
64229;PMS5003;50547;49.498;0.092;2023-05-07T06:56:39;18;16;
64229;PMS5003;50547;49.498;0.092;2023-05-07T06:59:08;18;16;
64229;PMS5003;50547;49.498;0.092;2023-05-07T07:01:37;18;16;
64229;PMS5003;50547;49.498;0.092;2023-05-07T07:04:07;18;16;
64229;PMS5003;50547;49.498;0.092;2023-05-07T07:06:36;18;16;
64229;PMS5003;50547;49.498;0.092;2023-05-07T07:09:05;18;16;
64229;PMS5003;50547;49.498;0.092;2023-05-07T07:11:34;18;16;
64229;PMS5003;50547;49.498;0.092;2023-05-07T07:14:04;18;16;
64229;PMS5003;50547;49.498;0.092;2023-05-07T07:16:33;18;16;
64229;PMS5003;50547;49.498;0.092;2023-05-07T07:19:02;18;16;
64229;PMS5003;50547;49.498;0.092;2023-05-07T07:21:32;14;14;
64229;PMS5003;50547;49.498;0.092;2023-05-07T07:24:01;14;14;
64229;PMS5003;50547;49.498;0.092;2023-05-07T07:26:30;14;14;
64229;PMS5003;50547;49.498;0.092;2023-05-07T07:28:59;14;14;
64229;PMS5003;50547;49.498;0.092;2023-05-07T07:31:29;14;14;
64229;PMS5003;50547;49.498;0.092;2023-05-07T07:33:58;14;14;
64229;PMS5003;50547;49.498;0.092;2023-05-07T07:36:27;15;14;
64229;PMS5003;50547;49.498;0.092;2023-05-07T07:38:56;14;14;
64229;PMS5003;50547;49.498;0.092;2023-05-07T07:41:25;15;14;
64229;PMS5003;50547;49.498;0.092;2023-05-07T07:43:54;15;14;
64229;PMS5003;50547;49.498;0.092;2023-05-07T07:46:24;14;14;
64229;PMS5003;50547;49.498;0.092;2023-05-07T07:48:53;14;14;
64229;PMS5003;50547;49.498;0.092;2023-05-07T07:51:22;13;13;
64229;PMS5003;50547;49.498;0.092;2023-05-07T07:53:51;13;13;
64229;PMS5003;50547;49.498;0.092;2023-05-07T07:56:27;11;11;
64229;PMS5003;50547;49.498;0.092;2023-05-07T07:58:56;10;10;
64229;PMS5003;50547;49.498;0.092;2023-05-07T08:01:26;11;11;
64229;PMS5003;50547;49.498;0.092;2023-05-07T08:03:55;11;11;
64229;PMS5003;50547;49.498;0.092;2023-05-07T08:06:25;11;11;
64229;PMS5003;50547;49.498;0.092;2023-05-07T08:08:54;11;11;
64229;PMS5003;50547;49.498;0.092;2023-05-07T08:11:23;11;11;
64229;PMS5003;50547;49.498;0.092;2023-05-07T08:13:53;11;11;
64229;PMS5003;50547;49.498;0.092;2023-05-07T08:16:22;11;11;
64229;PMS5003;50547;49.498;0.092;2023-05-07T08:18:51;11;11;
64229;PMS5003;50547;49.498;0.092;2023-05-07T08:21:21;11;11;
64229;PMS5003;50547;49.498;0.092;2023-05-07T08:23:50;11;11;
64229;PMS5003;50547;49.498;0.092;2023-05-07T08:26:20;11;11;
64229;PMS5003;50547;49.498;0.092;2023-05-07T08:28:49;11;11;
64229;PMS5003;50547;49.498;0.092;2023-05-07T08:31:18;11;11;
64229;PMS5003;50547;49.498;0.092;2023-05-07T08:33:47;11;11;
64229;PMS5003;50547;49.498;0.092;2023-05-07T08:36:16;11;11;
64229;PMS5003;50547;49.498;0.092;2023-05-07T08:38:45;13;13;
64229;PMS5003;50547;49.498;0.092;2023-05-07T08:41:15;13;13;
64229;PMS5003;50547;49.498;0.092;2023-05-07T08:43:45;13;13;
64229;PMS5003;50547;49.498;0.092;2023-05-07T08:46:15;13;13;
64229;PMS5003;50547;49.498;0.092;2023-05-07T08:48:47;13;13;
64229;PMS5003;50547;49.498;0.092;2023-05-07T08:51:18;13;13;
64229;PMS5003;50547;49.498;0.092;2023-05-07T08:53:49;11;11;
64229;PMS5003;50547;49.498;0.092;2023-05-07T08:56:18;13;13;
64229;PMS5003;50547;49.498;0.092;2023-05-07T08:58:47;13;13;
64229;PMS5003;50547;49.498;0.092;2023-05-07T09:01:17;13;13;
64229;PMS5003;50547;49.498;0.092;2023-05-07T09:03:46;13;13;
64229;PMS5003;50547;49.498;0.092;2023-05-07T09:06:16;11;11;
64229;PMS5003;50547;49.498;0.092;2023-05-07T09:08:48;11;11;
64229;PMS5003;50547;49.498;0.092;2023-05-07T09:11:20;13;13;
64229;PMS5003;50547;49.498;0.092;2023-05-07T09:13:53;13;13;
64229;PMS5003;50547;49.498;0.092;2023-05-07T09:16:23;13;13;
64229;PMS5003;50547;49.498;0.092;2023-05-07T09:18:54;13;13;
64229;PMS5003;50547;49.498;0.092;2023-05-07T09:21:29;13;13;
64229;PMS5003;50547;49.498;0.092;2023-05-07T09:23:59;11;11;
64229;PMS5003;50547;49.498;0.092;2023-05-07T09:26:28;11;11;
64229;PMS5003;50547;49.498;0.092;2023-05-07T09:28:57;11;11;
64229;PMS5003;50547;49.498;0.092;2023-05-07T09:31:27;13;13;
64229;PMS5003;50547;49.498;0.092;2023-05-07T09:33:56;13;13;
64229;PMS5003;50547;49.498;0.092;2023-05-07T09:36:26;13;13;
64229;PMS5003;50547;49.498;0.092;2023-05-07T09:38:55;13;13;
64229;PMS5003;50547;49.498;0.092;2023-05-07T09:41:28;13;13;
64229;PMS5003;50547;49.498;0.092;2023-05-07T09:43:59;13;13;
64229;PMS5003;50547;49.498;0.092;2023-05-07T09:46:25;14;14;
64229;PMS5003;50547;49.498;0.092;2023-05-07T09:48:58;14;14;
64229;PMS5003;50547;49.498;0.092;2023-05-07T09:51:32;14;14;
64229;PMS5003;50547;49.498;0.092;2023-05-07T09:54:08;14;14;
64229;PMS5003;50547;49.498;0.092;2023-05-07T09:56:38;13;13;
64229;PMS5003;50547;49.498;0.092;2023-05-07T09:59:08;14;14;
64229;PMS5003;50547;49.498;0.092;2023-05-07T10:01:41;14;14;
64229;PMS5003;50547;49.498;0.092;2023-05-07T10:04:12;13;13;
64229;PMS5003;50547;49.498;0.092;2023-05-07T10:06:42;13;13;
64229;PMS5003;50547;49.498;0.092;2023-05-07T10:09:13;13;13;
64229;PMS5003;50547;49.498;0.092;2023-05-07T10:11:43;13;13;
64229;PMS5003;50547;49.498;0.092;2023-05-07T10:14:12;13;13;
64229;PMS5003;50547;49.498;0.092;2023-05-07T10:16:43;11;11;
64229;PMS5003;50547;49.498;0.092;2023-05-07T10:19:13;11;11;
64229;PMS5003;50547;49.498;0.092;2023-05-07T10:21:44;11;11;
64229;PMS5003;50547;49.498;0.092;2023-05-07T10:24:15;11;11;
64229;PMS5003;50547;49.498;0.092;2023-05-07T10:26:49;11;11;
64229;PMS5003;50547;49.498;0.092;2023-05-07T10:29:24;11;11;
64229;PMS5003;50547;49.498;0.092;2023-05-07T10:32:02;11;11;
64229;PMS5003;50547;49.498;0.092;2023-05-07T10:34:43;11;11;
64229;PMS5003;50547;49.498;0.092;2023-05-07T10:37:15;11;11;
64229;PMS5003;50547;49.498;0.092;2023-05-07T10:39:46;11;11;
64229;PMS5003;50547;49.498;0.092;2023-05-07T10:42:16;11;11;
64229;PMS5003;50547;49.498;0.092;2023-05-07T10:44:45;11;11;
64229;PMS5003;50547;49.498;0.092;2023-05-07T10:47:15;11;11;
64229;PMS5003;50547;49.498;0.092;2023-05-07T10:50:50;13;13;
64229;PMS5003;50547;49.498;0.092;2023-05-07T10:53:47;13;13;
64229;PMS5003;50547;49.498;0.092;2023-05-07T10:56:26;11;11;
64229;PMS5003;50547;49.498;0.092;2023-05-07T10:58:56;13;13;
64229;PMS5003;50547;49.498;0.092;2023-05-07T11:02:00;11;11;
64229;PMS5003;50547;49.498;0.092;2023-05-07T11:04:30;13;13;
64229;PMS5003;50547;49.498;0.092;2023-05-07T11:07:21;13;13;
64229;PMS5003;50547;49.498;0.092;2023-05-07T11:09:54;13;13;
64229;PMS5003;50547;49.498;0.092;2023-05-07T11:12:56;11;11;
64229;PMS5003;50547;49.498;0.092;2023-05-07T11:15:41;11;11;
64229;PMS5003;50547;49.498;0.092;2023-05-07T11:18:12;11;11;
64229;PMS5003;50547;49.498;0.092;2023-05-07T11:20:50;11;11;
64229;PMS5003;50547;49.498;0.092;2023-05-07T11:23:55;11;11;
64229;PMS5003;50547;49.498;0.092;2023-05-07T11:26:26;11;11;
64229;PMS5003;50547;49.498;0.092;2023-05-07T11:28:57;11;11;
64229;PMS5003;50547;49.498;0.092;2023-05-07T11:31:27;11;11;
64229;PMS5003;50547;49.498;0.092;2023-05-07T11:33:56;13;13;
64229;PMS5003;50547;49.498;0.092;2023-05-07T11:36:30;13;13;
64229;PMS5003;50547;49.498;0.092;2023-05-07T11:39:00;13;13;
64229;PMS5003;50547;49.498;0.092;2023-05-07T11:41:33;13;13;
64229;PMS5003;50547;49.498;0.092;2023-05-07T11:44:03;13;13;
64229;PMS5003;50547;49.498;0.092;2023-05-07T11:46:32;13;13;
64229;PMS5003;50547;49.498;0.092;2023-05-07T11:49:02;14;14;
64229;PMS5003;50547;49.498;0.092;2023-05-07T11:51:31;14;14;
64229;PMS5003;50547;49.498;0.092;2023-05-07T11:54:03;17;15;
64229;PMS5003;50547;49.498;0.092;2023-05-07T11:56:34;15;14;
64229;PMS5003;50547;49.498;0.092;2023-05-07T11:59:04;18;16;
64229;PMS5003;50547;49.498;0.092;2023-05-07T12:01:31;19;17;
64229;PMS5003;50547;49.498;0.092;2023-05-07T12:04:00;18;16;
64229;PMS5003;50547;49.498;0.092;2023-05-07T12:06:35;18;16;
64229;PMS5003;50547;49.498;0.092;2023-05-07T12:09:05;18;16;
64229;PMS5003;50547;49.498;0.092;2023-05-07T12:11:35;18;16;
64229;PMS5003;50547;49.498;0.092;2023-05-07T12:14:04;18;16;
64229;PMS5003;50547;49.498;0.092;2023-05-07T12:16:40;19;17;
64229;PMS5003;50547;49.498;0.092;2023-05-07T12:19:17;19;17;
64229;PMS5003;50547;49.498;0.092;2023-05-07T12:21:47;20;17;
64229;PMS5003;50547;49.498;0.092;2023-05-07T12:24:16;21;18;
64229;PMS5003;50547;49.498;0.092;2023-05-07T12:26:45;22;19;
64229;PMS5003;50547;49.498;0.092;2023-05-07T12:29:15;22;19;
64229;PMS5003;50547;49.498;0.092;2023-05-07T12:31:44;23;20;
64229;PMS5003;50547;49.498;0.092;2023-05-07T12:34:13;22;19;
64229;PMS5003;50547;49.498;0.092;2023-05-07T12:36:42;22;19;
64229;PMS5003;50547;49.498;0.092;2023-05-07T12:39:12;22;19;
64229;PMS5003;50547;49.498;0.092;2023-05-07T12:41:54;23;20;
64229;PMS5003;50547;49.498;0.092;2023-05-07T12:44:24;22;19;
64229;PMS5003;50547;49.498;0.092;2023-05-07T12:46:57;21;18;
64229;PMS5003;50547;49.498;0.092;2023-05-07T12:49:25;20;17;
64229;PMS5003;50547;49.498;0.092;2023-05-07T12:51:54;21;18;
64229;PMS5003;50547;49.498;0.092;2023-05-07T12:54:28;22;19;
64229;PMS5003;50547;49.498;0.092;2023-05-07T12:57:02;22;19;
64229;PMS5003;50547;49.498;0.092;2023-05-07T12:59:32;22;19;
64229;PMS5003;50547;49.498;0.092;2023-05-07T13:02:02;22;19;
64229;PMS5003;50547;49.498;0.092;2023-05-07T13:04:32;20;17;
64229;PMS5003;50547;49.498;0.092;2023-05-07T13:07:02;20;17;
64229;PMS5003;50547;49.498;0.092;2023-05-07T13:09:32;21;18;
64229;PMS5003;50547;49.498;0.092;2023-05-07T13:11:58;21;18;
64229;PMS5003;50547;49.498;0.092;2023-05-07T13:14:27;20;17;
64229;PMS5003;50547;49.498;0.092;2023-05-07T13:16:56;19;17;
64229;PMS5003;50547;49.498;0.092;2023-05-07T13:19:26;19;17;
64229;PMS5003;50547;49.498;0.092;2023-05-07T13:21:55;19;17;
64229;PMS5003;50547;49.498;0.092;2023-05-07T13:24:24;18;16;
64229;PMS5003;50547;49.498;0.092;2023-05-07T13:26:53;15;14;
64229;PMS5003;50547;49.498;0.092;2023-05-07T13:29:23;14;14;
64229;PMS5003;50547;49.498;0.092;2023-05-07T13:31:52;14;14;
64229;PMS5003;50547;49.498;0.092;2023-05-07T13:34:21;18;16;
64229;PMS5003;50547;49.498;0.092;2023-05-07T13:36:50;18;16;
64229;PMS5003;50547;49.498;0.092;2023-05-07T13:39:19;17;15;
64229;PMS5003;50547;49.498;0.092;2023-05-07T13:41:49;18;16;
64229;PMS5003;50547;49.498;0.092;2023-05-07T13:44:18;18;16;
64229;PMS5003;50547;49.498;0.092;2023-05-07T13:46:47;17;15;
64229;PMS5003;50547;49.498;0.092;2023-05-07T13:49:17;15;14;
64229;PMS5003;50547;49.498;0.092;2023-05-07T13:51:46;17;15;
64229;PMS5003;50547;49.498;0.092;2023-05-07T13:54:15;15;14;
64229;PMS5003;50547;49.498;0.092;2023-05-07T13:56:44;18;16;
64229;PMS5003;50547;49.498;0.092;2023-05-07T13:59:13;18;16;
64229;PMS5003;50547;49.498;0.092;2023-05-07T14:01:43;18;16;
64229;PMS5003;50547;49.498;0.092;2023-05-07T14:04:22;18;16;
64229;PMS5003;50547;49.498;0.092;2023-05-07T14:06:51;18;16;
64229;PMS5003;50547;49.498;0.092;2023-05-07T14:09:18;18;16;
64229;PMS5003;50547;49.498;0.092;2023-05-07T14:12:17;14;14;
64229;PMS5003;50547;49.498;0.092;2023-05-07T14:14:46;14;14;
64229;PMS5003;50547;49.498;0.092;2023-05-07T14:17:16;13;13;
64229;PMS5003;50547;49.498;0.092;2023-05-07T14:19:45;13;13;
64229;PMS5003;50547;49.498;0.092;2023-05-07T14:22:15;13;13;
64229;PMS5003;50547;49.498;0.092;2023-05-07T14:24:50;13;13;
64229;PMS5003;50547;49.498;0.092;2023-05-07T14:27:19;13;13;
64229;PMS5003;50547;49.498;0.092;2023-05-07T14:29:48;13;13;
64229;PMS5003;50547;49.498;0.092;2023-05-07T14:32:17;13;13;
64229;PMS5003;50547;49.498;0.092;2023-05-07T14:34:47;14;14;
64229;PMS5003;50547;49.498;0.092;2023-05-07T14:37:16;13;13;
64229;PMS5003;50547;49.498;0.092;2023-05-07T14:39:45;13;13;
64229;PMS5003;50547;49.498;0.092;2023-05-07T14:42:15;13;13;
64229;PMS5003;50547;49.498;0.092;2023-05-07T14:44:44;11;11;
64229;PMS5003;50547;49.498;0.092;2023-05-07T14:47:14;13;13;
64229;PMS5003;50547;49.498;0.092;2023-05-07T14:49:46;13;13;
64229;PMS5003;50547;49.498;0.092;2023-05-07T14:52:14;10;10;
64229;PMS5003;50547;49.498;0.092;2023-05-07T14:54:40;11;11;
64229;PMS5003;50547;49.498;0.092;2023-05-07T14:57:10;11;11;
64229;PMS5003;50547;49.498;0.092;2023-05-07T14:59:40;10;10;
64229;PMS5003;50547;49.498;0.092;2023-05-07T15:02:09;11;11;
64229;PMS5003;50547;49.498;0.092;2023-05-07T15:04:39;10;10;
64229;PMS5003;50547;49.498;0.092;2023-05-07T15:07:09;10;10;
64229;PMS5003;50547;49.498;0.092;2023-05-07T15:09:38;9;9;
64229;PMS5003;50547;49.498;0.092;2023-05-07T15:12:07;10;10;
64229;PMS5003;50547;49.498;0.092;2023-05-07T15:14:37;8;8;
64229;PMS5003;50547;49.498;0.092;2023-05-07T15:17:10;10;10;
64229;PMS5003;50547;49.498;0.092;2023-05-07T15:19:39;10;10;
64229;PMS5003;50547;49.498;0.092;2023-05-07T15:22:09;10;10;
64229;PMS5003;50547;49.498;0.092;2023-05-07T15:24:40;10;10;
64229;PMS5003;50547;49.498;0.092;2023-05-07T15:27:09;11;11;
64229;PMS5003;50547;49.498;0.092;2023-05-07T15:29:39;11;11;
64229;PMS5003;50547;49.498;0.092;2023-05-07T15:32:08;11;11;
64229;PMS5003;50547;49.498;0.092;2023-05-07T15:34:37;13;13;
64229;PMS5003;50547;49.498;0.092;2023-05-07T15:37:06;11;11;
64229;PMS5003;50547;49.498;0.092;2023-05-07T15:39:36;13;13;
64229;PMS5003;50547;49.498;0.092;2023-05-07T15:42:05;10;10;
64229;PMS5003;50547;49.498;0.092;2023-05-07T15:44:34;11;11;
64229;PMS5003;50547;49.498;0.092;2023-05-07T15:47:09;13;13;
64229;PMS5003;50547;49.498;0.092;2023-05-07T15:49:45;13;13;
64229;PMS5003;50547;49.498;0.092;2023-05-07T15:52:14;11;11;
64229;PMS5003;50547;49.498;0.092;2023-05-07T15:54:43;11;11;
64229;PMS5003;50547;49.498;0.092;2023-05-07T15:57:12;11;11;
64229;PMS5003;50547;49.498;0.092;2023-05-07T15:59:41;11;11;
64229;PMS5003;50547;49.498;0.092;2023-05-07T16:02:10;11;11;
64229;PMS5003;50547;49.498;0.092;2023-05-07T16:04:39;11;11;
64229;PMS5003;50547;49.498;0.092;2023-05-07T16:07:09;11;11;
64229;PMS5003;50547;49.498;0.092;2023-05-07T16:09:38;11;11;
64229;PMS5003;50547;49.498;0.092;2023-05-07T16:12:12;11;11;
64229;PMS5003;50547;49.498;0.092;2023-05-07T16:14:42;12;12;
64229;PMS5003;50547;49.498;0.092;2023-05-07T16:17:11;11;11;
64229;PMS5003;50547;49.498;0.092;2023-05-07T16:19:40;11;11;
64229;PMS5003;50547;49.498;0.092;2023-05-07T16:22:09;11;11;
64229;PMS5003;50547;49.498;0.092;2023-05-07T16:24:39;11;11;
64229;PMS5003;50547;49.498;0.092;2023-05-07T16:27:06;11;11;
64229;PMS5003;50547;49.498;0.092;2023-05-07T16:29:35;11;11;
64229;PMS5003;50547;49.498;0.092;2023-05-07T16:32:05;11;11;
64229;PMS5003;50547;49.498;0.092;2023-05-07T16:34:34;13;13;
64229;PMS5003;50547;49.498;0.092;2023-05-07T16:37:03;13;13;
64229;PMS5003;50547;49.498;0.092;2023-05-07T16:39:32;13;13;
64229;PMS5003;50547;49.498;0.092;2023-05-07T16:42:02;12;12;
64229;PMS5003;50547;49.498;0.092;2023-05-07T16:44:31;13;13;